Latest Weather Observations for Hamilton Island

IDQ60801

Issued at 11:32 pm EST Friday 26 August 2016 (issued every 30 minutes, with the page automatically refreshed every 10 minutes)

About weather observations | Map of weather stations | Latest weather observations for QLD | Other Formats
Station Details ID: 033106 Name: HAMILTON ISLAND AIRPORT Lat: -20.37 Lon: 148.95 Height: 58.66 m
Data from the previous 72 hours. | See also: Recent months at Hamilton Island
Date/Time
EST
Temp
°C
App
Temp
°C
Dew
Point
°C
Rel
Hum
%
Delta-T
°C
Wind Press
QNH
hPa
Press
MSL
hPa
Rain since
9am
mm
Dir  Spd
km/h
Gust
km/h
Spd
kts
Gust
kts
26/11:30pm 18.7 10.9 9.8 56 4.7 SSE 41 50 22 27 1019.4 - 0.0
26/11:00pm 18.8 11.0 9.8 56 4.8 SSE 41 48 22 26 1019.4 - 0.0
26/10:30pm 19.0 11.9 10.8 59 4.5 SSE 39 46 21 25 1019.4 - 0.0
26/10:00pm 19.0 12.9 11.8 63 4.0 SSE 35 46 19 25 1019.1 - 0.0
26/09:30pm 19.1 12.7 13.1 68 3.4 SSE 39 52 21 28 1019.0 - 0.0
26/09:00pm 19.4 12.1 12.9 66 3.7 SSE 43 50 23 27 1018.9 1018.8 0.0
26/08:30pm 19.3 13.4 14.8 75 2.6 SE 39 46 21 25 1018.5 - 0.0
26/08:00pm 19.1 12.5 13.7 71 3.1 SE 41 48 22 26 1018.1 - 0.0
26/07:30pm 19.1 13.7 13.9 72 3.0 SE 35 43 19 23 1017.6 - 0.0
26/07:00pm 19.2 14.4 14.7 75 2.6 SE 33 37 18 20 1017.5 - 0.0
26/06:30pm 19.0 13.5 14.7 76 2.5 SE 37 41 20 22 1016.8 - 0.0
26/06:00pm 19.0 14.6 15.1 78 2.3 SE 32 35 17 19 1016.6 1016.5 0.0
26/05:30pm 19.2 14.6 15.1 77 2.4 SE 33 39 18 21 1016.1 - 0.0
26/05:00pm 19.6 15.3 15.3 76 2.5 SE 32 41 17 22 1015.8 - 0.0
26/04:30pm 19.7 15.3 15.6 77 2.4 SE 33 37 18 20 1015.5 - 0.0
26/04:00pm 19.3 13.4 14.8 75 2.6 SSE 39 44 21 24 1015.1 - 0.0
26/03:30pm 19.5 13.4 15.2 76 2.5 SSE 41 46 22 25 1014.8 - 0.0
26/03:00pm 19.8 14.1 15.2 75 2.7 SSE 39 46 21 25 1014.8 1014.7 0.0
26/02:59pm 19.8 14.2 15.4 76 2.6 SSE 39 46 21 25 1014.8 - 0.0
26/02:30pm 20.0 16.0 16.6 81 2.1 SSE 33 39 18 21 1014.9 - 0.0
26/02:00pm 20.3 17.0 16.1 77 2.5 SE 28 32 15 17 1015.1 - 0.0
26/01:33pm 21.0 18.2 16.4 75 2.8 SSE 26 32 14 17 1015.0 - 0.0
26/01:30pm 20.8 18.2 16.8 78 2.4 SSE 26 32 14 17 1015.1 - 0.0
26/01:17pm 20.2 17.3 16.2 78 2.4 SSE 26 32 14 17 1015.2 - 0.0
26/01:00pm 20.9 18.6 16.7 77 2.6 SE 24 30 13 16 1015.4 - 0.0
26/12:40pm 20.1 16.9 16.3 79 2.3 SE 28 33 15 18 1015.5 - 0.0
26/12:30pm 20.2 17.1 16.6 80 2.2 SSE 28 32 15 17 1015.6 - 0.0
26/12:00pm 19.7 15.7 16.3 81 2.0 SSE 32 35 17 19 1016.0 1015.9 0.0
26/11:51am 19.7 15.8 16.5 82 1.9 SSE 32 35 17 19 1016.2 - 0.0
26/11:30am 19.7 15.6 16.5 82 1.9 SSE 33 37 18 20 1016.3 - 0.0
26/11:00am 19.5 15.8 16.9 85 1.6 SSE 32 37 17 20 1016.5 - 0.0
26/10:30am 19.5 17.8 17.3 87 1.3 SSE 22 30 12 16 1017.0 - 0.0
26/10:19am 19.3 16.9 17.3 88 1.2 SSE 26 33 14 18 1016.8 - 0.0
26/10:01am 19.3 16.9 17.3 88 1.2 S 26 33 14 18 1016.8 - 0.0
26/10:00am 19.2 16.3 17.0 87 1.3 SSE 28 33 15 18 1016.8 - 0.0
26/09:30am 19.1 17.2 17.6 91 0.9 SSE 24 33 13 18 1016.9 - 0.0
26/09:00am 19.4 17.1 18.4 94 0.6 SSE 28 32 15 17 1016.6 1016.5 4.0
26/08:55am 19.2 16.8 18.2 94 0.6 SSE 28 32 15 17 1016.5 - 4.0
26/08:30am 19.1 18.7 18.1 94 0.6 S 17 20 9 11 1016.9 - 3.6
26/08:07am 19.3 18.9 18.0 92 0.8 S 17 20 9 11 1016.8 - 2.6
26/08:00am 19.4 18.9 17.9 91 0.9 S 17 20 9 11 1016.8 - 2.4
26/07:45am 19.7 19.2 17.7 88 1.2 S 17 24 9 13 1016.4 - 1.8
26/07:30am 19.9 18.3 17.5 86 1.5 S 22 30 12 16 1016.0 - 1.8
26/07:00am 20.1 18.3 17.9 87 1.4 SSE 24 28 13 15 1015.4 - 1.8
26/06:31am 20.0 18.5 17.6 86 1.5 SSE 22 26 12 14 1015.1 - 1.8
26/06:30am 19.9 18.3 17.5 86 1.5 SSE 22 26 12 14 1015.1 - 1.8
26/06:00am 20.1 19.1 17.5 85 1.6 SSE 19 22 10 12 1014.8 1014.7 1.8
26/05:55am 20.1 19.1 17.5 85 1.6 SSE 19 22 10 12 1014.7 - 1.8
26/05:53am 20.2 19.6 17.6 85 1.6 SSE 17 22 9 12 1014.6 - 1.8
26/05:30am 20.2 19.1 17.2 83 1.8 SSE 19 22 10 12 1014.3 - 1.8
26/05:25am 20.2 19.1 17.4 84 1.7 SSE 19 20 10 11 1014.1 - 1.8
26/05:00am 19.9 19.1 17.1 84 1.7 SE 17 20 9 11 1013.7 - 1.8
26/04:30am 20.1 19.8 17.3 84 1.7 SE 15 17 8 9 1013.7 - 1.8
26/04:00am 20.0 19.6 17.2 84 1.7 SE 15 17 8 9 1013.7 - 1.8
26/03:30am 20.0 19.8 16.8 82 1.9 SE 13 17 7 9 1013.6 - 1.8
26/03:00am 20.0 19.6 17.2 84 1.7 SE 15 17 8 9 1013.8 1013.6 1.8
26/02:30am 20.2 19.5 17.4 84 1.7 SE 17 19 9 10 1013.9 - 1.8
26/02:00am 20.1 19.3 17.1 83 1.8 SE 17 20 9 11 1014.0 - 1.6
26/01:30am 20.3 19.1 17.1 82 2.0 ESE 19 24 10 13 1014.1 - 1.6
26/01:00am 20.3 18.9 17.1 82 2.0 ESE 20 22 11 12 1014.4 - 1.6
26/12:30am 20.2 18.9 17.2 83 1.8 E 20 24 11 13 1014.6 - 1.6
26/12:00am 20.1 19.4 17.3 84 1.7 E 17 20 9 11 1014.9 1014.8 1.6
 
Date/Time
EST
Temp
°C
App
Temp
°C
Dew
Point
°C
Rel
Hum
%
Delta-T
°C
Wind Press
QNH
hPa
Press
MSL
hPa
Rain since
9am
mm
Dir  Spd
km/h
Gust
km/h
Spd
kts
Gust
kts
25/11:30pm 19.9 18.8 17.3 85 1.6 E 19 22 10 12 1015.0 - 1.6
25/11:00pm 20.3 20.0 17.3 83 1.8 E 15 20 8 11 1015.3 - 1.6
25/10:30pm 20.4 18.7 17.2 82 2.0 E 22 28 12 15 1015.3 - 1.6
25/10:00pm 20.3 18.1 16.9 81 2.1 E 24 28 13 15 1015.2 - 1.6
25/09:30pm 20.3 18.2 17.1 82 2.0 E 24 28 13 15 1015.3 - 1.6
25/09:00pm 20.2 18.1 17.2 83 1.8 ESE 24 30 13 16 1015.1 1015.0 1.6
25/08:30pm 20.3 18.6 17.3 83 1.8 ESE 22 28 12 15 1015.3 - 1.6
25/08:00pm 20.3 19.0 17.3 83 1.8 ESE 20 24 11 13 1014.9 - 1.4
25/07:36pm 20.3 18.7 17.5 84 1.7 ESE 22 28 12 15 1014.8 - 1.4
25/07:30pm 20.4 18.5 17.6 84 1.7 ESE 24 28 13 15 1014.6 - 1.4
25/07:00pm 20.4 19.1 17.2 82 2.0 ESE 20 26 11 14 1014.3 - 1.4
25/06:30pm 20.3 19.0 17.3 83 1.8 ESE 20 26 11 14 1014.0 - 1.4
25/06:12pm 20.4 19.1 17.2 82 2.0 ESE 20 28 11 15 1013.7 - 1.4
25/06:00pm 20.3 19.0 17.3 83 1.8 ESE 20 22 11 12 1013.7 1013.5 1.4
25/05:48pm 20.3 18.6 17.1 82 2.0 ESE 22 24 12 13 1013.6 - 1.4
25/05:30pm 20.4 19.2 17.4 83 1.8 ESE 20 24 11 13 1013.5 - 1.4
25/05:29pm 20.4 19.1 17.2 82 2.0 ESE 20 24 11 13 1013.5 - 1.4
25/05:14pm 20.3 19.3 17.5 84 1.7 ESE 19 24 10 13 1013.4 - 1.4
25/05:00pm 20.4 19.4 17.6 84 1.7 ESE 19 20 10 11 1013.2 - 1.4
25/04:51pm 20.4 19.9 17.8 85 1.6 ESE 17 20 9 11 1013.2 - 1.4
25/04:30pm 20.4 19.9 17.8 85 1.6 ESE 17 19 9 10 1012.9 - 1.4
25/04:00pm 20.5 20.4 17.9 85 1.6 ESE 15 17 8 9 1012.6 - 1.4
25/03:30pm 20.6 20.4 18.4 87 1.4 SE 17 22 9 12 1012.0 - 1.4
25/03:00pm 20.4 20.0 18.0 86 1.5 ESE 17 19 9 10 1012.3 1012.1 1.4
25/02:30pm 20.4 20.4 18.2 87 1.4 ESE 15 17 8 9 1012.3 - 1.4
25/02:17pm 20.1 19.7 18.0 88 1.3 ESE 17 20 9 11 1012.6 - 1.4
25/02:06pm 20.1 19.3 17.9 87 1.4 ESE 19 22 10 12 1012.4 - 1.4
25/02:03pm 20.2 19.4 18.0 87 1.4 ESE 19 22 10 12 1012.3 - 1.4
25/02:00pm 20.2 19.6 17.6 85 1.6 ESE 17 22 9 12 1012.2 - 1.4
25/01:45pm 20.8 20.2 17.6 82 2.0 ESE 17 19 9 10 1012.7 - 0.0
25/01:30pm 20.9 20.7 17.7 82 2.0 SE 15 17 8 9 1012.7 - 0.0
25/01:03pm 21.1 20.2 17.7 81 2.1 SE 19 20 10 11 1012.5 - 0.0
25/01:00pm 20.9 19.9 17.5 81 2.1 SE 19 20 10 11 1012.5 - 0.0
25/12:40pm 21.1 20.1 17.5 80 2.2 SE 19 22 10 12 1012.5 - 0.0
25/12:39pm 20.9 19.8 17.3 80 2.2 SE 19 22 10 12 1012.5 - 0.0
25/12:30pm 20.8 19.7 17.8 83 1.9 SE 20 24 11 13 1012.8 - 0.0
25/12:00pm 20.9 20.3 17.5 81 2.1 SE 17 19 9 10 1013.3 1013.1 0.0
25/11:51am 21.0 20.1 17.8 82 2.0 ESE 19 22 10 12 1013.4 - 0.0
25/11:30am 21.0 19.5 17.8 82 2.0 ESE 22 26 12 14 1013.1 - 0.0
25/11:00am 21.3 20.4 17.7 80 2.2 ESE 19 24 10 13 1013.6 - 0.0
25/10:51am 21.7 20.5 18.3 81 2.1 ESE 22 28 12 15 1013.6 - 0.0
25/10:30am 21.1 19.7 17.9 82 2.0 E 22 28 12 15 1013.7 - 0.0
25/10:00am 21.4 19.7 18.0 81 2.1 ESE 24 30 13 16 1014.1 - 0.0
25/09:55am 21.1 19.6 17.7 81 2.1 ESE 22 30 12 16 1013.5 - 0.0
25/09:30am 21.1 19.2 16.7 76 2.7 ESE 22 26 12 14 1014.1 - 0.0
25/09:00am 21.3 19.1 16.9 76 2.7 ESE 24 28 13 15 1014.1 1013.9 0.2
25/08:30am 21.1 19.1 17.5 80 2.2 ESE 24 28 13 15 1013.9 - 0.2
25/08:00am 20.8 19.5 17.2 80 2.2 ESE 20 26 11 14 1014.1 - 0.2
25/07:30am 20.5 18.4 17.1 81 2.1 ESE 24 28 13 15 1013.3 - 0.2
25/07:00am 20.4 19.2 17.6 84 1.7 ESE 20 26 11 14 1013.2 - 0.2
25/06:30am 20.5 19.5 17.5 83 1.8 ESE 19 20 10 11 1013.5 - 0.2
25/06:00am 20.4 18.9 17.6 84 1.7 SE 22 26 12 14 1012.6 1012.4 0.2
25/05:30am 20.4 18.9 17.6 84 1.7 SE 22 28 12 15 1012.3 - 0.2
25/05:00am 20.3 18.0 17.5 84 1.7 SE 26 30 14 16 1012.0 - 0.2
25/04:44am 20.3 17.5 17.3 83 1.8 SE 28 33 15 18 1011.6 - 0.2
25/04:30am 20.4 17.4 17.8 85 1.6 SE 30 33 16 18 1011.8 - 0.2
25/04:00am 20.4 17.4 17.8 85 1.6 SE 30 33 16 18 1011.6 - 0.2
25/03:30am 20.2 16.6 17.2 83 1.8 SE 32 35 17 19 1011.5 - 0.2
25/03:13am 20.2 16.8 17.8 86 1.5 SSE 32 35 17 19 1011.4 - 0.2
25/03:00am 20.3 17.5 18.1 87 1.4 SSE 30 35 16 19 1011.3 1011.1 0.2
25/02:59am 20.3 17.5 18.1 87 1.4 SSE 30 33 16 18 1011.3 - 0.2
25/02:45am 20.2 16.7 17.8 86 1.5 SSE 33 39 18 21 1011.2 - 0.2
25/02:30am 20.3 16.9 18.2 88 1.3 SSE 33 37 18 20 1011.5 - 0.2
25/02:15am 20.2 17.1 18.3 89 1.2 SE 32 37 17 20 1011.6 - 0.2
25/02:00am 20.5 17.5 19.0 91 0.9 SSE 33 37 18 20 1011.7 - 0.2
25/01:42am 20.2 16.6 18.5 90 1.1 SSE 35 39 19 21 1011.7 - 0.2
25/01:30am 20.4 17.2 18.7 90 1.1 SSE 33 39 18 21 1012.0 - 0.0
25/01:00am 20.7 18.3 19.2 91 0.9 SE 30 35 16 19 1012.2 - 0.0
25/12:30am 20.6 17.8 19.1 91 0.9 SE 32 39 17 21 1012.5 - 0.0
25/12:00am 20.8 19.0 19.6 93 0.8 SSE 28 37 15 20 1012.5 1012.3 0.0
 
Date/Time
EST
Temp
°C
App
Temp
°C
Dew
Point
°C
Rel
Hum
%
Delta-T
°C
Wind Press
QNH
hPa
Press
MSL
hPa
Rain since
9am
mm
Dir  Spd
km/h
Gust
km/h
Spd
kts
Gust
kts
24/11:38pm 21.5 19.2 19.4 88 1.3 SSE 30 33 16 18 1012.6 - 0.0
24/11:30pm 22.9 25.5 21.2 90 1.1 S 9 15 5 8 1012.6 - 0.0
24/11:00pm 23.6 26.6 21.9 90 1.1 W 9 17 5 9 1012.6 - 0.0
24/10:30pm 23.5 24.9 21.9 91 1.1 WNW 17 20 9 11 1012.4 - 0.0
24/10:00pm 23.3 24.7 21.9 92 0.9 WNW 17 19 9 10 1012.2 - 0.0
24/09:30pm 23.3 24.4 21.9 92 0.9 WNW 19 24 10 13 1012.3 - 0.0
24/09:12pm 23.6 24.1 22.0 91 1.1 WNW 22 28 12 15 1012.1 - 0.0
24/09:00pm 23.6 24.1 21.9 90 1.1 NW 22 30 12 16 1011.8 1011.6 0.0
24/08:41pm 23.7 24.0 21.6 88 1.4 NW 22 28 12 15 1011.4 - 0.0
24/08:30pm 23.8 25.3 21.3 86 1.6 NW 15 22 8 12 1011.3 - 0.0
24/08:00pm 23.8 26.1 21.3 86 1.6 NW 11 17 6 9 1011.0 - 0.0
24/07:54pm 23.8 26.0 21.1 85 1.8 NNW 11 15 6 8 1010.8 - 0.0
24/07:32pm 23.8 24.0 21.3 86 1.6 N 22 28 12 15 1010.2 - 0.0
24/07:30pm 23.8 24.0 21.3 86 1.6 N 22 28 12 15 1010.2 - 0.0
24/07:00pm 23.5 24.3 21.4 88 1.4 N 19 24 10 13 1010.1 - 0.0
24/06:42pm 23.5 24.1 21.4 88 1.4 N 20 26 11 14 1010.0 - 0.0
24/06:30pm 23.5 24.3 21.4 88 1.4 NNW 19 22 10 12 1009.9 - 0.0
24/06:00pm 23.6 23.8 21.3 87 1.5 NNW 22 28 12 15 1009.7 1009.5 0.0
24/05:30pm 23.8 23.2 21.3 86 1.6 NNW 26 35 14 19 1009.4 - 0.0
24/05:00pm 24.0 23.0 21.3 85 1.8 NNW 28 35 15 19 1009.2 - 0.0
24/04:30pm 24.8 23.0 21.1 80 2.4 NNW 32 41 17 22 1009.1 - 0.0
24/04:00pm 25.3 23.9 21.2 78 2.7 NNW 30 39 16 21 1008.9 - 0.0
24/03:30pm 25.3 23.1 20.8 76 3.0 NW 33 44 18 24 1008.9 - 0.0
24/03:00pm 24.9 22.7 20.8 78 2.7 NW 33 43 18 23 1008.9 1008.7 0.0
24/02:30pm 25.3 22.5 21.0 77 2.8 NW 37 44 20 24 1009.1 - 0.0
24/02:00pm 25.2 22.3 20.9 77 2.8 NW 37 46 20 25 1009.2 - 0.0
24/01:30pm 25.1 21.9 21.0 78 2.7 NW 39 48 21 26 1009.6 - 0.0
24/01:00pm 25.0 22.5 20.9 78 2.7 NNW 35 43 19 23 1010.0 - 0.0
24/12:30pm 24.7 21.9 21.0 80 2.4 NW 37 44 20 24 1010.5 - 0.0
24/12:00pm 24.1 20.4 20.8 82 2.2 NW 41 50 22 27 1010.7 1010.5 0.0
24/11:30am 24.3 21.1 21.0 82 2.2 NNW 39 48 21 26 1011.2 - 0.0
24/11:00am 23.8 21.5 20.5 82 2.2 NNW 33 43 18 23 1011.8 - 0.0
24/10:30am 23.4 21.2 20.7 85 1.8 NW 33 41 18 22 1012.5 - 0.0
24/10:10am 23.0 19.5 20.5 86 1.6 NNW 39 44 21 24 1012.5 - 0.0
24/10:00am 23.1 19.3 20.6 86 1.6 NNW 41 46 22 25 1012.4 - 0.0
24/09:54am 23.2 19.5 20.7 86 1.6 NNW 41 46 22 25 1012.4 - 0.0
24/09:30am 23.4 20.7 20.5 84 1.9 NNW 35 46 19 25 1012.4 - 0.0
24/09:00am 23.6 20.7 20.1 81 2.3 NNW 35 43 19 23 1012.2 1012.0 0.4
24/08:30am 23.3 19.4 19.5 79 2.4 NNW 39 48 21 26 1011.9 - 0.4
24/08:00am 22.6 19.7 20.1 86 1.6 NNW 35 43 19 23 1011.9 - 0.4
24/07:30am 22.3 19.3 20.6 90 1.1 NNW 37 46 20 25 1011.5 - 0.4
24/07:00am 22.0 19.5 20.8 93 0.8 NNW 35 43 19 23 1011.2 - 0.4
24/06:30am 21.9 19.9 20.7 93 0.8 NNW 32 39 17 21 1011.0 - 0.4
24/06:00am 21.7 21.9 20.5 93 0.8 NNW 20 28 11 15 1010.8 1010.6 0.4
24/05:30am 21.6 22.6 20.2 92 0.9 NNW 15 20 8 11 1010.3 - 0.4
24/05:00am 21.4 22.6 19.9 91 1.0 N 13 17 7 9 1010.0 - 0.4
24/04:36am 21.3 22.5 19.8 91 1.0 N 13 20 7 11 1009.8 - 0.4
24/04:30am 21.2 22.6 19.5 90 1.1 NNW 11 17 6 9 1009.8 - 0.4
24/04:00am 21.1 23.2 19.4 90 1.1 NNW 7 11 4 6 1009.8 - 0.4
24/03:30am 21.1 23.3 19.6 91 1.0 W 7 11 4 6 1009.6 - 0.2
24/03:00am 21.0 23.1 19.3 90 1.1 NNW 7 13 4 7 1009.7 1009.5 0.2
24/02:30am 21.1 23.1 19.2 89 1.2 N 7 11 4 6 1009.9 - 0.2
24/02:00am 20.9 23.3 19.7 93 0.8 NW 6 7 3 4 1010.4 - 0.2
24/01:30am 20.8 23.0 19.5 92 0.8 NW 7 9 4 5 1010.9 - 0.2
24/01:00am 20.8 22.6 19.5 92 0.8 WNW 9 9 5 5 1011.2 - 0.2
24/12:30am 20.7 22.7 19.2 91 0.9 W 7 9 4 5 1011.5 - 0.2
24/12:00am 21.0 23.2 19.1 89 1.2 NW 6 11 3 6 1011.9 1011.7 0.2

Other Formats:

Comma delimited format used in spreadsheet applications
http://www.bom.gov.au/fwo/IDQ60801/IDQ60801.94368.axf

JavaScript Object Notation format (JSON) in row-major order
http://www.bom.gov.au/fwo/IDQ60801/IDQ60801.94368.json